sensor_id;sensor_type;location;lat;lon;timestamp;temperature;humidity
44671;DHT22;48397;53.016;-2.260;2023-04-09T00:01:20;7.90;99.90
44671;DHT22;48397;53.016;-2.260;2023-04-09T00:03:48;7.90;99.90
44671;DHT22;48397;53.016;-2.260;2023-04-09T00:06:17;7.90;99.90
44671;DHT22;48397;53.016;-2.260;2023-04-09T00:08:45;7.80;99.90
44671;DHT22;48397;53.016;-2.260;2023-04-09T00:11:12;7.80;99.90
44671;DHT22;48397;53.016;-2.260;2023-04-09T00:13:41;7.80;99.90
44671;DHT22;48397;53.016;-2.260;2023-04-09T00:18:38;7.80;99.90
44671;DHT22;48397;53.016;-2.260;2023-04-09T00:21:08;7.80;99.90
44671;DHT22;48397;53.016;-2.260;2023-04-09T00:23:38;7.80;99.90
44671;DHT22;48397;53.016;-2.260;2023-04-09T00:26:08;7.60;99.90
44671;DHT22;48397;53.016;-2.260;2023-04-09T00:28:37;7.60;99.90
44671;DHT22;48397;53.016;-2.260;2023-04-09T00:31:05;7.60;99.90
44671;DHT22;48397;53.016;-2.260;2023-04-09T00:33:33;7.60;99.90
44671;DHT22;48397;53.016;-2.260;2023-04-09T00:36:02;7.60;99.90
44671;DHT22;48397;53.016;-2.260;2023-04-09T00:38:30;7.50;99.90
44671;DHT22;48397;53.016;-2.260;2023-04-09T00:40:58;7.50;99.90
44671;DHT22;48397;53.016;-2.260;2023-04-09T00:43:28;7.50;99.90
44671;DHT22;48397;53.016;-2.260;2023-04-09T00:45:57;7.50;99.90
44671;DHT22;48397;53.016;-2.260;2023-04-09T00:48:26;7.50;99.90
44671;DHT22;48397;53.016;-2.260;2023-04-09T00:50:55;7.40;99.90
44671;DHT22;48397;53.016;-2.260;2023-04-09T00:53:23;7.40;99.90
44671;DHT22;48397;53.016;-2.260;2023-04-09T00:55:54;7.30;99.90
44671;DHT22;48397;53.016;-2.260;2023-04-09T00:58:22;7.30;99.90
44671;DHT22;48397;53.016;-2.260;2023-04-09T01:00:50;7.30;99.90
44671;DHT22;48397;53.016;-2.260;2023-04-09T01:03:18;7.30;99.90
44671;DHT22;48397;53.016;-2.260;2023-04-09T01:06:03;8.80;99.90
44671;DHT22;48397;53.016;-2.260;2023-04-09T01:09:05;7.30;99.90
44671;DHT22;48397;53.016;-2.260;2023-04-09T01:14:40;7.30;99.90
44671;DHT22;48397;53.016;-2.260;2023-04-09T01:17:44;7.30;99.90
44671;DHT22;48397;53.016;-2.260;2023-04-09T01:20:22;7.20;99.90
44671;DHT22;48397;53.016;-2.260;2023-04-09T01:28:18;7.20;99.90
44671;DHT22;48397;53.016;-2.260;2023-04-09T01:30:49;7.10;99.90
44671;DHT22;48397;53.016;-2.260;2023-04-09T01:33:18;7.10;99.90
44671;DHT22;48397;53.016;-2.260;2023-04-09T01:35:48;7.10;99.90
44671;DHT22;48397;53.016;-2.260;2023-04-09T01:38:19;7.00;99.90
44671;DHT22;48397;53.016;-2.260;2023-04-09T01:40:49;7.00;99.90
44671;DHT22;48397;53.016;-2.260;2023-04-09T01:43:18;6.90;99.90
44671;DHT22;48397;53.016;-2.260;2023-04-09T01:45:47;6.80;99.90
44671;DHT22;48397;53.016;-2.260;2023-04-09T01:48:15;6.80;99.90
44671;DHT22;48397;53.016;-2.260;2023-04-09T01:50:43;6.70;99.90
44671;DHT22;48397;53.016;-2.260;2023-04-09T01:53:11;6.70;99.90
44671;DHT22;48397;53.016;-2.260;2023-04-09T01:55:39;6.70;99.90
44671;DHT22;48397;53.016;-2.260;2023-04-09T01:58:07;6.70;99.90
44671;DHT22;48397;53.016;-2.260;2023-04-09T02:00:38;6.70;99.90
44671;DHT22;48397;53.016;-2.260;2023-04-09T02:03:07;6.60;99.90
44671;DHT22;48397;53.016;-2.260;2023-04-09T02:05:42;6.50;99.90
44671;DHT22;48397;53.016;-2.260;2023-04-09T02:08:18;6.40;99.90
44671;DHT22;48397;53.016;-2.260;2023-04-09T02:10:50;6.40;99.90
44671;DHT22;48397;53.016;-2.260;2023-04-09T02:13:22;6.40;99.90
44671;DHT22;48397;53.016;-2.260;2023-04-09T02:15:55;6.30;99.90
44671;DHT22;48397;53.016;-2.260;2023-04-09T02:18:26;6.30;99.90
44671;DHT22;48397;53.016;-2.260;2023-04-09T02:20:55;6.30;99.90
44671;DHT22;48397;53.016;-2.260;2023-04-09T02:23:40;6.30;99.90
44671;DHT22;48397;53.016;-2.260;2023-04-09T02:29:17;6.40;99.90
44671;DHT22;48397;53.016;-2.260;2023-04-09T02:31:47;6.40;99.90
44671;DHT22;48397;53.016;-2.260;2023-04-09T02:34:17;6.30;99.90
44671;DHT22;48397;53.016;-2.260;2023-04-09T02:36:45;6.40;99.90
44671;DHT22;48397;53.016;-2.260;2023-04-09T02:39:13;6.40;99.90
44671;DHT22;48397;53.016;-2.260;2023-04-09T02:41:40;6.50;99.90
44671;DHT22;48397;53.016;-2.260;2023-04-09T02:44:09;6.40;99.90
44671;DHT22;48397;53.016;-2.260;2023-04-09T02:46:38;6.50;99.90
44671;DHT22;48397;53.016;-2.260;2023-04-09T02:49:06;6.50;99.90
44671;DHT22;48397;53.016;-2.260;2023-04-09T02:51:37;6.50;99.90
44671;DHT22;48397;53.016;-2.260;2023-04-09T02:54:04;6.50;99.90
44671;DHT22;48397;53.016;-2.260;2023-04-09T02:56:33;6.50;99.90
44671;DHT22;48397;53.016;-2.260;2023-04-09T02:59:01;6.50;99.90
44671;DHT22;48397;53.016;-2.260;2023-04-09T03:01:28;6.40;99.90
44671;DHT22;48397;53.016;-2.260;2023-04-09T03:03:56;6.40;99.90
44671;DHT22;48397;53.016;-2.260;2023-04-09T03:06:25;6.40;99.90
44671;DHT22;48397;53.016;-2.260;2023-04-09T03:08:53;6.20;99.90
44671;DHT22;48397;53.016;-2.260;2023-04-09T03:11:21;6.20;99.90
44671;DHT22;48397;53.016;-2.260;2023-04-09T03:13:48;6.10;99.90
44671;DHT22;48397;53.016;-2.260;2023-04-09T03:16:16;6.00;99.90
44671;DHT22;48397;53.016;-2.260;2023-04-09T03:18:44;6.00;99.90
44671;DHT22;48397;53.016;-2.260;2023-04-09T03:21:12;6.00;99.90
44671;DHT22;48397;53.016;-2.260;2023-04-09T03:23:46;6.00;99.90
44671;DHT22;48397;53.016;-2.260;2023-04-09T03:26:14;7.20;99.90
44671;DHT22;48397;53.016;-2.260;2023-04-09T03:28:46;5.70;99.90
44671;DHT22;48397;53.016;-2.260;2023-04-09T03:31:14;5.80;99.90
44671;DHT22;48397;53.016;-2.260;2023-04-09T03:33:43;5.70;99.90
44671;DHT22;48397;53.016;-2.260;2023-04-09T03:36:11;5.70;99.90
44671;DHT22;48397;53.016;-2.260;2023-04-09T03:39:08;5.60;99.90
44671;DHT22;48397;53.016;-2.260;2023-04-09T03:41:40;5.50;99.90
44671;DHT22;48397;53.016;-2.260;2023-04-09T03:44:12;5.50;99.90
44671;DHT22;48397;53.016;-2.260;2023-04-09T03:47:00;5.50;99.90
44671;DHT22;48397;53.016;-2.260;2023-04-09T03:49:28;5.40;99.90
44671;DHT22;48397;53.016;-2.260;2023-04-09T03:52:05;5.30;99.90
44671;DHT22;48397;53.016;-2.260;2023-04-09T03:54:37;5.20;99.90
44671;DHT22;48397;53.016;-2.260;2023-04-09T03:57:12;5.20;99.90
44671;DHT22;48397;53.016;-2.260;2023-04-09T03:59:42;5.20;99.90
44671;DHT22;48397;53.016;-2.260;2023-04-09T04:02:11;5.10;99.90
44671;DHT22;48397;53.016;-2.260;2023-04-09T04:04:44;5.10;99.90
44671;DHT22;48397;53.016;-2.260;2023-04-09T04:07:14;5.00;99.90
44671;DHT22;48397;53.016;-2.260;2023-04-09T04:09:56;5.00;99.90
44671;DHT22;48397;53.016;-2.260;2023-04-09T04:12:23;4.90;99.90
44671;DHT22;48397;53.016;-2.260;2023-04-09T04:15:11;4.80;99.90
44671;DHT22;48397;53.016;-2.260;2023-04-09T04:17:46;4.80;99.90
44671;DHT22;48397;53.016;-2.260;2023-04-09T04:20:46;4.80;99.90
44671;DHT22;48397;53.016;-2.260;2023-04-09T04:23:14;4.80;99.90
44671;DHT22;48397;53.016;-2.260;2023-04-09T04:25:52;4.70;99.90
44671;DHT22;48397;53.016;-2.260;2023-04-09T04:28:27;4.80;99.90
44671;DHT22;48397;53.016;-2.260;2023-04-09T04:30:55;4.80;99.90
44671;DHT22;48397;53.016;-2.260;2023-04-09T04:33:22;4.80;99.90
44671;DHT22;48397;53.016;-2.260;2023-04-09T04:35:53;4.80;99.90
44671;DHT22;48397;53.016;-2.260;2023-04-09T04:38:38;4.80;99.90
44671;DHT22;48397;53.016;-2.260;2023-04-09T04:41:13;4.80;99.90
44671;DHT22;48397;53.016;-2.260;2023-04-09T04:43:46;4.90;99.90
44671;DHT22;48397;53.016;-2.260;2023-04-09T04:46:20;4.80;99.90
44671;DHT22;48397;53.016;-2.260;2023-04-09T04:48:48;4.90;99.90
44671;DHT22;48397;53.016;-2.260;2023-04-09T04:51:16;4.90;99.90
44671;DHT22;48397;53.016;-2.260;2023-04-09T04:53:56;4.90;99.90
44671;DHT22;48397;53.016;-2.260;2023-04-09T04:56:24;4.90;99.90
44671;DHT22;48397;53.016;-2.260;2023-04-09T04:59:07;5.90;99.90
44671;DHT22;48397;53.016;-2.260;2023-04-09T05:01:55;4.90;99.90
44671;DHT22;48397;53.016;-2.260;2023-04-09T05:04:24;4.90;99.90
44671;DHT22;48397;53.016;-2.260;2023-04-09T05:06:53;4.90;99.90
44671;DHT22;48397;53.016;-2.260;2023-04-09T05:09:23;4.80;99.90
44671;DHT22;48397;53.016;-2.260;2023-04-09T05:11:59;4.80;99.90
44671;DHT22;48397;53.016;-2.260;2023-04-09T05:14:28;4.70;99.90
44671;DHT22;48397;53.016;-2.260;2023-04-09T05:16:56;4.70;99.90
44671;DHT22;48397;53.016;-2.260;2023-04-09T05:19:29;4.70;99.90
44671;DHT22;48397;53.016;-2.260;2023-04-09T05:22:01;4.70;99.90
44671;DHT22;48397;53.016;-2.260;2023-04-09T05:24:29;6.80;99.90
44671;DHT22;48397;53.016;-2.260;2023-04-09T05:26:56;4.70;99.90
44671;DHT22;48397;53.016;-2.260;2023-04-09T05:31:53;4.60;99.90
44671;DHT22;48397;53.016;-2.260;2023-04-09T05:34:30;4.50;99.90
44671;DHT22;48397;53.016;-2.260;2023-04-09T05:36:58;4.50;99.90
44671;DHT22;48397;53.016;-2.260;2023-04-09T05:39:27;4.50;99.90
44671;DHT22;48397;53.016;-2.260;2023-04-09T05:41:59;4.50;99.90
44671;DHT22;48397;53.016;-2.260;2023-04-09T05:44:47;4.60;99.90
44671;DHT22;48397;53.016;-2.260;2023-04-09T05:47:19;4.60;99.90
44671;DHT22;48397;53.016;-2.260;2023-04-09T05:49:58;4.60;99.90
44671;DHT22;48397;53.016;-2.260;2023-04-09T05:52:25;4.60;99.90
44671;DHT22;48397;53.016;-2.260;2023-04-09T05:54:54;4.60;99.90
44671;DHT22;48397;53.016;-2.260;2023-04-09T05:57:29;4.70;99.90
44671;DHT22;48397;53.016;-2.260;2023-04-09T06:00:03;4.80;99.90
44671;DHT22;48397;53.016;-2.260;2023-04-09T06:02:43;4.90;99.90
44671;DHT22;48397;53.016;-2.260;2023-04-09T06:05:12;4.90;99.90
44671;DHT22;48397;53.016;-2.260;2023-04-09T06:07:40;5.00;99.90
44671;DHT22;48397;53.016;-2.260;2023-04-09T06:10:08;5.00;99.90
44671;DHT22;48397;53.016;-2.260;2023-04-09T06:12:35;5.10;99.90
44671;DHT22;48397;53.016;-2.260;2023-04-09T06:15:04;5.10;99.90
44671;DHT22;48397;53.016;-2.260;2023-04-09T06:17:32;5.20;99.90
44671;DHT22;48397;53.016;-2.260;2023-04-09T06:20:00;5.20;99.90
44671;DHT22;48397;53.016;-2.260;2023-04-09T06:22:28;5.30;99.90
44671;DHT22;48397;53.016;-2.260;2023-04-09T06:24:56;5.30;99.90
44671;DHT22;48397;53.016;-2.260;2023-04-09T06:27:23;5.30;99.90
44671;DHT22;48397;53.016;-2.260;2023-04-09T06:29:51;5.30;99.90
44671;DHT22;48397;53.016;-2.260;2023-04-09T06:32:19;5.20;99.90
44671;DHT22;48397;53.016;-2.260;2023-04-09T06:34:46;5.20;99.90
44671;DHT22;48397;53.016;-2.260;2023-04-09T06:37:14;5.20;99.90
44671;DHT22;48397;53.016;-2.260;2023-04-09T06:39:42;5.20;99.90
44671;DHT22;48397;53.016;-2.260;2023-04-09T06:42:24;5.10;99.90
44671;DHT22;48397;53.016;-2.260;2023-04-09T06:45:05;5.20;99.90
44671;DHT22;48397;53.016;-2.260;2023-04-09T06:47:35;6.30;99.90
44671;DHT22;48397;53.016;-2.260;2023-04-09T06:50:03;5.30;99.90
44671;DHT22;48397;53.016;-2.260;2023-04-09T06:52:30;5.30;99.90
44671;DHT22;48397;53.016;-2.260;2023-04-09T06:54:58;5.40;99.90
44671;DHT22;48397;53.016;-2.260;2023-04-09T06:57:26;5.60;99.90
44671;DHT22;48397;53.016;-2.260;2023-04-09T06:59:54;5.80;99.90
44671;DHT22;48397;53.016;-2.260;2023-04-09T07:02:22;5.90;99.90
44671;DHT22;48397;53.016;-2.260;2023-04-09T07:04:50;5.90;99.90
44671;DHT22;48397;53.016;-2.260;2023-04-09T07:07:18;6.00;99.90
44671;DHT22;48397;53.016;-2.260;2023-04-09T07:09:50;6.00;99.90
44671;DHT22;48397;53.016;-2.260;2023-04-09T07:12:28;6.10;99.90
44671;DHT22;48397;53.016;-2.260;2023-04-09T07:14:57;6.20;99.90
44671;DHT22;48397;53.016;-2.260;2023-04-09T07:17:25;6.30;99.90
44671;DHT22;48397;53.016;-2.260;2023-04-09T07:19:53;6.30;99.90
44671;DHT22;48397;53.016;-2.260;2023-04-09T07:22:21;6.40;99.90
44671;DHT22;48397;53.016;-2.260;2023-04-09T07:24:49;6.40;99.90
44671;DHT22;48397;53.016;-2.260;2023-04-09T07:27:24;6.50;99.90
44671;DHT22;48397;53.016;-2.260;2023-04-09T07:29:57;6.50;99.90
44671;DHT22;48397;53.016;-2.260;2023-04-09T07:32:26;6.60;99.90
44671;DHT22;48397;53.016;-2.260;2023-04-09T07:34:57;6.70;99.90
44671;DHT22;48397;53.016;-2.260;2023-04-09T07:37:26;6.70;99.90
44671;DHT22;48397;53.016;-2.260;2023-04-09T07:39:53;6.90;99.90
44671;DHT22;48397;53.016;-2.260;2023-04-09T07:42:22;7.00;99.90
44671;DHT22;48397;53.016;-2.260;2023-04-09T07:44:49;7.20;99.90
44671;DHT22;48397;53.016;-2.260;2023-04-09T07:47:17;7.20;99.90
44671;DHT22;48397;53.016;-2.260;2023-04-09T07:49:45;7.20;99.90
44671;DHT22;48397;53.016;-2.260;2023-04-09T07:52:13;7.20;99.90
44671;DHT22;48397;53.016;-2.260;2023-04-09T07:54:41;7.30;99.90
44671;DHT22;48397;53.016;-2.260;2023-04-09T07:57:09;7.30;99.90
44671;DHT22;48397;53.016;-2.260;2023-04-09T07:59:37;7.30;99.90
44671;DHT22;48397;53.016;-2.260;2023-04-09T08:02:05;7.40;99.90
44671;DHT22;48397;53.016;-2.260;2023-04-09T08:07:02;7.70;99.90
44671;DHT22;48397;53.016;-2.260;2023-04-09T08:09:30;7.80;99.90
44671;DHT22;48397;53.016;-2.260;2023-04-09T08:14:26;8.00;99.90
44671;DHT22;48397;53.016;-2.260;2023-04-09T08:16:53;8.20;99.90
44671;DHT22;48397;53.016;-2.260;2023-04-09T08:19:21;8.20;99.90
44671;DHT22;48397;53.016;-2.260;2023-04-09T08:21:48;8.30;99.90
44671;DHT22;48397;53.016;-2.260;2023-04-09T08:24:17;8.30;99.90
44671;DHT22;48397;53.016;-2.260;2023-04-09T08:26:45;8.40;99.90
44671;DHT22;48397;53.016;-2.260;2023-04-09T08:29:13;8.40;99.90
44671;DHT22;48397;53.016;-2.260;2023-04-09T08:31:41;8.50;99.90
44671;DHT22;48397;53.016;-2.260;2023-04-09T08:34:09;8.60;99.90
44671;DHT22;48397;53.016;-2.260;2023-04-09T08:36:37;8.60;99.90
44671;DHT22;48397;53.016;-2.260;2023-04-09T08:39:05;8.80;99.90
44671;DHT22;48397;53.016;-2.260;2023-04-09T08:41:33;8.80;99.90
44671;DHT22;48397;53.016;-2.260;2023-04-09T08:44:03;9.00;99.90
44671;DHT22;48397;53.016;-2.260;2023-04-09T08:46:31;9.10;99.90
44671;DHT22;48397;53.016;-2.260;2023-04-09T08:48:58;9.10;99.90
44671;DHT22;48397;53.016;-2.260;2023-04-09T08:51:26;9.20;99.90
44671;DHT22;48397;53.016;-2.260;2023-04-09T08:53:59;9.20;99.90
44671;DHT22;48397;53.016;-2.260;2023-04-09T08:56:31;9.40;99.90
44671;DHT22;48397;53.016;-2.260;2023-04-09T08:58:58;9.40;99.90
44671;DHT22;48397;53.016;-2.260;2023-04-09T09:01:28;9.60;99.90
44671;DHT22;48397;53.016;-2.260;2023-04-09T09:04:07;9.60;99.90
44671;DHT22;48397;53.016;-2.260;2023-04-09T09:06:40;9.80;99.90
44671;DHT22;48397;53.016;-2.260;2023-04-09T09:09:15;9.80;99.90
44671;DHT22;48397;53.016;-2.260;2023-04-09T09:11:47;10.00;99.90
44671;DHT22;48397;53.016;-2.260;2023-04-09T09:14:18;9.90;99.90
44671;DHT22;48397;53.016;-2.260;2023-04-09T09:22:03;10.10;99.90
44671;DHT22;48397;53.016;-2.260;2023-04-09T09:24:31;10.30;99.90
44671;DHT22;48397;53.016;-2.260;2023-04-09T09:27:01;10.50;99.90
44671;DHT22;48397;53.016;-2.260;2023-04-09T09:29:29;10.70;99.90
44671;DHT22;48397;53.016;-2.260;2023-04-09T09:31:57;10.60;99.90
44671;DHT22;48397;53.016;-2.260;2023-04-09T09:34:24;10.70;99.90
44671;DHT22;48397;53.016;-2.260;2023-04-09T09:36:53;10.90;99.90
44671;DHT22;48397;53.016;-2.260;2023-04-09T09:39:21;10.80;99.90
44671;DHT22;48397;53.016;-2.260;2023-04-09T09:42:06;10.90;99.90
44671;DHT22;48397;53.016;-2.260;2023-04-09T09:44:34;10.90;99.90
44671;DHT22;48397;53.016;-2.260;2023-04-09T09:47:02;11.00;99.90
44671;DHT22;48397;53.016;-2.260;2023-04-09T09:49:31;11.30;99.90
44671;DHT22;48397;53.016;-2.260;2023-04-09T09:51:59;11.30;99.90
44671;DHT22;48397;53.016;-2.260;2023-04-09T09:54:38;11.50;99.90
44671;DHT22;48397;53.016;-2.260;2023-04-09T09:57:08;11.50;99.90
44671;DHT22;48397;53.016;-2.260;2023-04-09T09:59:40;11.60;99.90
44671;DHT22;48397;53.016;-2.260;2023-04-09T10:02:21;11.80;99.90
44671;DHT22;48397;53.016;-2.260;2023-04-09T10:04:49;11.80;99.90
44671;DHT22;48397;53.016;-2.260;2023-04-09T10:07:19;12.00;99.90
44671;DHT22;48397;53.016;-2.260;2023-04-09T10:09:50;12.20;99.90
44671;DHT22;48397;53.016;-2.260;2023-04-09T10:12:21;12.30;99.90
44671;DHT22;48397;53.016;-2.260;2023-04-09T10:14:58;12.30;99.90
44671;DHT22;48397;53.016;-2.260;2023-04-09T10:17:32;12.40;99.90
44671;DHT22;48397;53.016;-2.260;2023-04-09T10:20:09;12.50;99.90
44671;DHT22;48397;53.016;-2.260;2023-04-09T10:22:45;12.50;99.90
44671;DHT22;48397;53.016;-2.260;2023-04-09T10:25:16;12.50;99.90
44671;DHT22;48397;53.016;-2.260;2023-04-09T10:27:44;12.60;99.90
44671;DHT22;48397;53.016;-2.260;2023-04-09T10:30:35;12.70;99.90
44671;DHT22;48397;53.016;-2.260;2023-04-09T10:33:13;12.70;99.90
44671;DHT22;48397;53.016;-2.260;2023-04-09T10:35:42;12.70;99.90
44671;DHT22;48397;53.016;-2.260;2023-04-09T10:38:16;12.80;99.90
44671;DHT22;48397;53.016;-2.260;2023-04-09T10:40:47;14.90;99.90
44671;DHT22;48397;53.016;-2.260;2023-04-09T10:43:19;12.80;99.90
44671;DHT22;48397;53.016;-2.260;2023-04-09T10:45:48;13.00;99.90
44671;DHT22;48397;53.016;-2.260;2023-04-09T10:48:22;13.10;99.90
44671;DHT22;48397;53.016;-2.260;2023-04-09T10:50:52;13.10;99.90
44671;DHT22;48397;53.016;-2.260;2023-04-09T10:53:22;13.20;99.90
44671;DHT22;48397;53.016;-2.260;2023-04-09T10:55:52;13.20;99.90
44671;DHT22;48397;53.016;-2.260;2023-04-09T10:58:20;13.30;99.90
44671;DHT22;48397;53.016;-2.260;2023-04-09T11:00:48;13.20;99.90
44671;DHT22;48397;53.016;-2.260;2023-04-09T11:03:25;13.30;99.90
44671;DHT22;48397;53.016;-2.260;2023-04-09T11:06:05;13.20;99.90
44671;DHT22;48397;53.016;-2.260;2023-04-09T11:08:37;13.40;99.90
44671;DHT22;48397;53.016;-2.260;2023-04-09T11:11:06;13.40;99.90
44671;DHT22;48397;53.016;-2.260;2023-04-09T11:13:34;13.50;99.90
44671;DHT22;48397;53.016;-2.260;2023-04-09T11:16:02;13.40;99.90
44671;DHT22;48397;53.016;-2.260;2023-04-09T11:18:35;13.40;99.90
44671;DHT22;48397;53.016;-2.260;2023-04-09T11:21:04;13.60;99.90
44671;DHT22;48397;53.016;-2.260;2023-04-09T11:23:32;13.70;99.90
44671;DHT22;48397;53.016;-2.260;2023-04-09T11:26:01;13.60;99.90
44671;DHT22;48397;53.016;-2.260;2023-04-09T11:28:29;13.80;99.90
44671;DHT22;48397;53.016;-2.260;2023-04-09T11:30:57;13.80;99.90
44671;DHT22;48397;53.016;-2.260;2023-04-09T11:33:31;13.90;99.90
44671;DHT22;48397;53.016;-2.260;2023-04-09T11:36:04;13.90;99.90
44671;DHT22;48397;53.016;-2.260;2023-04-09T11:38:33;13.90;99.90
44671;DHT22;48397;53.016;-2.260;2023-04-09T11:41:05;14.00;99.90
44671;DHT22;48397;53.016;-2.260;2023-04-09T11:43:35;14.10;99.90
44671;DHT22;48397;53.016;-2.260;2023-04-09T11:46:04;14.40;99.90
44671;DHT22;48397;53.016;-2.260;2023-04-09T11:48:32;14.40;99.90
44671;DHT22;48397;53.016;-2.260;2023-04-09T11:51:01;14.60;99.90
44671;DHT22;48397;53.016;-2.260;2023-04-09T11:53:30;14.80;99.90
44671;DHT22;48397;53.016;-2.260;2023-04-09T11:56:00;15.00;99.90
44671;DHT22;48397;53.016;-2.260;2023-04-09T11:58:28;14.90;99.90
44671;DHT22;48397;53.016;-2.260;2023-04-09T12:00:59;15.10;99.90
44671;DHT22;48397;53.016;-2.260;2023-04-09T12:03:30;15.10;99.90
44671;DHT22;48397;53.016;-2.260;2023-04-09T12:06:05;15.50;99.90
44671;DHT22;48397;53.016;-2.260;2023-04-09T12:08:42;15.70;99.90
44671;DHT22;48397;53.016;-2.260;2023-04-09T12:11:14;15.80;99.90
44671;DHT22;48397;53.016;-2.260;2023-04-09T12:13:44;16.00;99.90
44671;DHT22;48397;53.016;-2.260;2023-04-09T12:16:13;16.50;99.90
44671;DHT22;48397;53.016;-2.260;2023-04-09T12:18:41;16.60;99.90
44671;DHT22;48397;53.016;-2.260;2023-04-09T12:21:09;17.10;99.90
44671;DHT22;48397;53.016;-2.260;2023-04-09T12:23:37;17.00;99.90
44671;DHT22;48397;53.016;-2.260;2023-04-09T12:26:05;17.20;99.90
44671;DHT22;48397;53.016;-2.260;2023-04-09T12:28:34;17.30;99.90
44671;DHT22;48397;53.016;-2.260;2023-04-09T12:31:02;17.20;99.90
44671;DHT22;48397;53.016;-2.260;2023-04-09T12:33:30;17.00;99.90
44671;DHT22;48397;53.016;-2.260;2023-04-09T12:35:59;16.80;99.90
44671;DHT22;48397;53.016;-2.260;2023-04-09T12:38:30;16.80;99.90
44671;DHT22;48397;53.016;-2.260;2023-04-09T12:40:59;17.00;99.90
44671;DHT22;48397;53.016;-2.260;2023-04-09T12:43:28;17.00;99.90
44671;DHT22;48397;53.016;-2.260;2023-04-09T12:45:57;17.10;99.90
44671;DHT22;48397;53.016;-2.260;2023-04-09T12:48:24;17.10;99.90
44671;DHT22;48397;53.016;-2.260;2023-04-09T12:50:53;17.30;99.90
44671;DHT22;48397;53.016;-2.260;2023-04-09T12:53:21;17.30;99.90
44671;DHT22;48397;53.016;-2.260;2023-04-09T12:55:52;17.50;99.90
44671;DHT22;48397;53.016;-2.260;2023-04-09T12:58:19;17.60;99.90
44671;DHT22;48397;53.016;-2.260;2023-04-09T13:00:47;17.60;99.90
44671;DHT22;48397;53.016;-2.260;2023-04-09T13:03:17;17.40;99.90
44671;DHT22;48397;53.016;-2.260;2023-04-09T13:05:45;17.60;99.90
44671;DHT22;48397;53.016;-2.260;2023-04-09T13:08:13;17.70;99.90
44671;DHT22;48397;53.016;-2.260;2023-04-09T13:10:43;17.70;99.90
44671;DHT22;48397;53.016;-2.260;2023-04-09T13:13:10;17.90;99.90
44671;DHT22;48397;53.016;-2.260;2023-04-09T13:15:41;18.10;99.90
44671;DHT22;48397;53.016;-2.260;2023-04-09T13:18:13;18.20;99.90
44671;DHT22;48397;53.016;-2.260;2023-04-09T13:20:41;18.20;99.90
44671;DHT22;48397;53.016;-2.260;2023-04-09T13:23:10;18.10;99.90
44671;DHT22;48397;53.016;-2.260;2023-04-09T13:25:40;18.10;99.90
44671;DHT22;48397;53.016;-2.260;2023-04-09T13:28:08;17.90;99.90
44671;DHT22;48397;53.016;-2.260;2023-04-09T13:30:36;17.70;99.90
44671;DHT22;48397;53.016;-2.260;2023-04-09T13:33:04;17.70;99.90
44671;DHT22;48397;53.016;-2.260;2023-04-09T13:35:34;17.70;99.90
44671;DHT22;48397;53.016;-2.260;2023-04-09T13:38:02;17.60;99.90
44671;DHT22;48397;53.016;-2.260;2023-04-09T13:40:30;17.50;99.90
44671;DHT22;48397;53.016;-2.260;2023-04-09T13:42:58;17.50;99.90
44671;DHT22;48397;53.016;-2.260;2023-04-09T13:45:27;17.30;99.90
44671;DHT22;48397;53.016;-2.260;2023-04-09T13:47:55;17.30;99.90
44671;DHT22;48397;53.016;-2.260;2023-04-09T13:50:24;16.90;99.90
44671;DHT22;48397;53.016;-2.260;2023-04-09T13:52:51;16.80;99.90
44671;DHT22;48397;53.016;-2.260;2023-04-09T13:55:19;16.80;99.90
44671;DHT22;48397;53.016;-2.260;2023-04-09T13:57:47;16.90;99.90
44671;DHT22;48397;53.016;-2.260;2023-04-09T14:00:15;16.90;99.90
44671;DHT22;48397;53.016;-2.260;2023-04-09T14:02:44;17.00;99.90
44671;DHT22;48397;53.016;-2.260;2023-04-09T14:07:40;17.00;99.90
44671;DHT22;48397;53.016;-2.260;2023-04-09T14:10:08;17.00;99.90
44671;DHT22;48397;53.016;-2.260;2023-04-09T14:12:36;16.90;99.90
44671;DHT22;48397;53.016;-2.260;2023-04-09T14:15:04;16.80;99.90
44671;DHT22;48397;53.016;-2.260;2023-04-09T14:17:33;16.70;99.90
44671;DHT22;48397;53.016;-2.260;2023-04-09T14:20:01;16.60;99.90
44671;DHT22;48397;53.016;-2.260;2023-04-09T14:22:30;16.60;99.90
44671;DHT22;48397;53.016;-2.260;2023-04-09T14:24:58;16.40;99.90
44671;DHT22;48397;53.016;-2.260;2023-04-09T14:27:25;16.20;99.90
44671;DHT22;48397;53.016;-2.260;2023-04-09T14:29:53;16.20;99.90
44671;DHT22;48397;53.016;-2.260;2023-04-09T14:32:21;16.20;99.90
44671;DHT22;48397;53.016;-2.260;2023-04-09T14:34:49;16.10;99.90
44671;DHT22;48397;53.016;-2.260;2023-04-09T14:37:17;16.40;99.90
44671;DHT22;48397;53.016;-2.260;2023-04-09T14:39:45;16.40;99.90
44671;DHT22;48397;53.016;-2.260;2023-04-09T14:42:12;16.40;99.90
44671;DHT22;48397;53.016;-2.260;2023-04-09T14:44:41;16.50;99.90
44671;DHT22;48397;53.016;-2.260;2023-04-09T14:47:08;16.60;99.90
44671;DHT22;48397;53.016;-2.260;2023-04-09T14:49:38;17.00;99.90
44671;DHT22;48397;53.016;-2.260;2023-04-09T14:52:05;17.10;99.90
44671;DHT22;48397;53.016;-2.260;2023-04-09T14:54:34;17.20;99.90
44671;DHT22;48397;53.016;-2.260;2023-04-09T14:57:04;17.20;99.90
44671;DHT22;48397;53.016;-2.260;2023-04-09T14:59:33;17.00;99.90
44671;DHT22;48397;53.016;-2.260;2023-04-09T15:02:01;16.70;99.90
44671;DHT22;48397;53.016;-2.260;2023-04-09T15:04:29;16.40;99.90
44671;DHT22;48397;53.016;-2.260;2023-04-09T15:06:59;16.40;99.90
44671;DHT22;48397;53.016;-2.260;2023-04-09T15:09:28;16.00;99.90
44671;DHT22;48397;53.016;-2.260;2023-04-09T15:11:56;16.00;99.90
44671;DHT22;48397;53.016;-2.260;2023-04-09T15:14:27;15.70;99.90
44671;DHT22;48397;53.016;-2.260;2023-04-09T15:16:57;15.70;99.90
44671;DHT22;48397;53.016;-2.260;2023-04-09T15:19:25;15.60;99.90
44671;DHT22;48397;53.016;-2.260;2023-04-09T15:21:53;15.60;99.90
44671;DHT22;48397;53.016;-2.260;2023-04-09T15:24:22;15.60;99.90
44671;DHT22;48397;53.016;-2.260;2023-04-09T15:26:51;15.60;99.90
44671;DHT22;48397;53.016;-2.260;2023-04-09T15:29:19;15.70;99.90
44671;DHT22;48397;53.016;-2.260;2023-04-09T15:34:16;15.90;99.90
44671;DHT22;48397;53.016;-2.260;2023-04-09T15:36:44;16.00;99.90
44671;DHT22;48397;53.016;-2.260;2023-04-09T15:39:13;16.00;99.90
44671;DHT22;48397;53.016;-2.260;2023-04-09T15:41:43;16.00;99.90
44671;DHT22;48397;53.016;-2.260;2023-04-09T15:44:10;15.90;99.90
44671;DHT22;48397;53.016;-2.260;2023-04-09T15:46:38;15.90;99.90
44671;DHT22;48397;53.016;-2.260;2023-04-09T15:49:11;15.90;99.90
44671;DHT22;48397;53.016;-2.260;2023-04-09T15:51:39;15.90;99.90
44671;DHT22;48397;53.016;-2.260;2023-04-09T15:54:06;15.90;99.90
44671;DHT22;48397;53.016;-2.260;2023-04-09T15:56:34;15.90;99.90
44671;DHT22;48397;53.016;-2.260;2023-04-09T15:59:07;15.90;99.90
44671;DHT22;48397;53.016;-2.260;2023-04-09T16:01:40;15.90;99.90
44671;DHT22;48397;53.016;-2.260;2023-04-09T16:04:08;15.90;99.90
44671;DHT22;48397;53.016;-2.260;2023-04-09T16:06:37;15.90;99.90
44671;DHT22;48397;53.016;-2.260;2023-04-09T16:09:05;14.80;99.90
44671;DHT22;48397;53.016;-2.260;2023-04-09T16:11:33;15.80;99.90
44671;DHT22;48397;53.016;-2.260;2023-04-09T16:14:02;15.70;99.90
44671;DHT22;48397;53.016;-2.260;2023-04-09T16:16:31;15.60;99.90